Time;durP1;ratioP1;P1;durP2;ratioP2;P2;SDS_P1;SDS_P2;PMS_P1;PMS_P2;Temp;Humidity;BMP_temperature;BMP_pressure;BME280_temperature;BME280_humidity;BME280_pressure;Samples;Min_cycle;Max_cycle;Signal;HPM_P1;HPM_P2
2022/12/14 00:01:24;;;;;;;9.23;6.57;;;;;;;;;;5072309;28;20205;-84
2022/12/14 00:03:52;;;;;;;6.67;5.93;;;;;;;;;;5073431;28;20232;-84
2022/12/14 00:06:21;;;;;;;8.10;6.00;;;;;;;;;;5072163;28;20679;-83
2022/12/14 00:08:51;;;;;;;7.83;6.90;;;;;;;;;;5073472;28;20606;-84
2022/12/14 00:11:21;;;;;;;7.30;6.03;;;;;;;;;;5073140;28;20266;-84
2022/12/14 00:13:53;;;;;;;7.40;5.93;;;;;;;;;;5073413;28;20262;-84
2022/12/14 00:16:20;;;;;;;7.83;6.47;;;;;;;;;;5073264;28;20213;-84
2022/12/14 00:18:51;;;;;;;8.17;6.83;;;;;;;;;;5073196;28;20247;-84
2022/12/14 00:21:18;;;;;;;7.70;6.13;;;;;;;;;;5073463;28;20213;-84
2022/12/14 00:23:47;;;;;;;8.23;6.30;;;;;;;;;;5072922;28;20228;-85
2022/12/14 00:26:17;;;;;;;10.50;6.30;;;;;;;;;;5071882;28;20220;-84
2022/12/14 00:28:46;;;;;;;9.73;6.83;;;;;;;;;;5072922;28;20196;-84
2022/12/14 00:31:13;;;;;;;11.13;7.00;;;;;;;;;;5072834;28;20209;-85
2022/12/14 00:33:40;;;;;;;11.67;8.70;;;;;;;;;;5074082;28;20292;-84
2022/12/14 00:36:09;;;;;;;10.60;8.47;;;;;;;;;;5085939;28;20254;-83
2022/12/14 00:38:38;;;;;;;15.37;11.07;;;;;;;;;;5073095;28;20710;-84
2022/12/14 00:41:06;;;;;;;12.13;8.33;;;;;;;;;;5059315;28;20576;-84
2022/12/14 00:43:34;;;;;;;8.90;6.60;;;;;;;;;;5064113;28;20595;-84
2022/12/14 00:46:01;;;;;;;7.70;6.60;;;;;;;;;;5066463;28;20208;-85
2022/12/14 00:48:29;;;;;;;9.20;6.17;;;;;;;;;;5071776;28;20209;-84
2022/12/14 00:50:56;;;;;;;8.03;6.27;;;;;;;;;;5071661;28;20209;-84
2022/12/14 00:53:25;;;;;;;9.17;6.07;;;;;;;;;;5072745;28;20746;-84
2022/12/14 00:55:52;;;;;;;8.37;6.57;;;;;;;;;;5072461;28;20205;-84
2022/12/14 00:58:21;;;;;;;11.47;6.90;;;;;;;;;;5072572;28;20287;-85
2022/12/14 01:00:59;;;;;;;10.63;8.10;;;;;;;;;;5072294;28;20205;-85
2022/12/14 01:03:26;;;;;;;16.07;11.87;;;;;;;;;;5072308;28;20228;-85
2022/12/14 01:05:53;;;;;;;7.90;5.67;;;;;;;;;;5072186;28;20209;-85
2022/12/14 01:08:21;;;;;;;8.40;6.20;;;;;;;;;;5071706;28;20622;-85
2022/12/14 01:10:48;;;;;;;11.70;8.40;;;;;;;;;;5063708;28;20284;-87
2022/12/14 01:13:15;;;;;;;15.10;11.90;;;;;;;;;;5063031;28;20202;-85
2022/12/14 01:15:43;;;;;;;17.00;14.83;;;;;;;;;;5059662;28;20205;-84
2022/12/14 01:18:11;;;;;;;20.20;15.60;;;;;;;;;;5072361;28;20232;-85
2022/12/14 01:20:39;;;;;;;21.70;15.57;;;;;;;;;;5085481;28;20236;-84
2022/12/14 01:23:07;;;;;;;18.93;14.97;;;;;;;;;;5072202;28;20260;-85
2022/12/14 01:25:34;;;;;;;13.77;10.87;;;;;;;;;;5071588;28;20694;-84
2022/12/14 01:28:01;;;;;;;14.37;8.93;;;;;;;;;;5072183;28;20208;-85
2022/12/14 01:30:29;;;;;;;9.93;7.10;;;;;;;;;;5069904;28;20266;-86
2022/12/14 01:32:56;;;;;;;15.60;11.10;;;;;;;;;;5070760;28;20704;-86
2022/12/14 01:35:26;;;;;;;10.67;8.73;;;;;;;;;;5070683;28;20213;-85
2022/12/14 01:37:54;;;;;;;6.57;5.57;;;;;;;;;;5071786;28;20216;-86
2022/12/14 01:40:21;;;;;;;11.10;8.20;;;;;;;;;;5071783;28;20270;-85
2022/12/14 01:42:49;;;;;;;9.63;7.03;;;;;;;;;;5068106;28;20703;-86
2022/12/14 01:45:20;;;;;;;7.63;5.53;;;;;;;;;;5058927;28;20699;-86
2022/12/14 01:47:50;;;;;;;14.43;9.87;;;;;;;;;;5071975;28;20205;-85
2022/12/14 01:50:22;;;;;;;16.73;13.10;;;;;;;;;;5071528;28;20201;-86
2022/12/14 01:52:53;;;;;;;10.67;8.40;;;;;;;;;;5051080;28;20210;-86
2022/12/14 01:55:23;;;;;;;8.27;6.77;;;;;;;;;;5071277;28;20215;-85
2022/12/14 01:57:54;;;;;;;10.60;8.13;;;;;;;;;;5070305;28;20797;-85
2022/12/14 02:00:23;;;;;;;19.57;16.47;;;;;;;;;;5071549;28;20217;-86
2022/12/14 02:02:56;;;;;;;26.77;20.33;;;;;;;;;;5071821;28;20292;-86
2022/12/14 02:05:23;;;;;;;28.70;20.00;;;;;;;;;;5070423;28;20205;-86
2022/12/14 02:07:55;;;;;;;33.63;21.37;;;;;;;;;;5071048;28;20205;-86
2022/12/14 02:10:23;;;;;;;28.57;17.60;;;;;;;;;;5070420;28;20201;-85
2022/12/14 02:12:54;;;;;;;38.37;18.13;;;;;;;;;;5069338;28;20687;-86
2022/12/14 02:15:21;;;;;;;24.63;14.20;;;;;;;;;;5070840;28;20201;-85
2022/12/14 02:17:48;;;;;;;17.50;11.93;;;;;;;;;;5070914;28;20237;-86
2022/12/14 02:20:17;;;;;;;27.37;16.37;;;;;;;;;;5067551;28;20205;-85
2022/12/14 02:23:29;;;;;;;17.10;12.50;;;;;;;;;;5060759;28;20659;-86
2022/12/14 02:26:46;;;;;;;14.93;9.53;;;;;;;;;;5055757;28;20212;-85
2022/12/14 02:29:45;;;;;;;29.03;18.47;;;;;;;;;;5053132;28;20265;-85
2022/12/14 02:32:21;;;;;;;17.50;12.57;;;;;;;;;;5069840;28;20208;-85
2022/12/14 02:34:56;;;;;;;9.03;7.07;;;;;;;;;;5070601;28;20208;-85
2022/12/14 02:37:32;;;;;;;6.37;5.77;;;;;;;;;;5069968;28;20275;-85
2022/12/14 02:40:12;;;;;;;5.17;4.13;;;;;;;;;;5070191;28;20204;-86
2022/12/14 02:42:42;;;;;;;6.73;6.03;;;;;;;;;;5069416;28;20196;-86
2022/12/14 02:45:15;;;;;;;7.03;5.40;;;;;;;;;;5070508;28;20291;-85
2022/12/14 02:47:49;;;;;;;7.40;4.97;;;;;;;;;;5069698;28;20201;-85
2022/12/14 02:50:21;;;;;;;10.80;7.60;;;;;;;;;;5070638;28;20208;-85
2022/12/14 02:52:56;;;;;;;9.03;6.67;;;;;;;;;;5070484;28;20215;-85
2022/12/14 02:55:28;;;;;;;8.37;5.03;;;;;;;;;;5070125;28;20633;-85
2022/12/14 02:57:59;;;;;;;11.53;6.20;;;;;;;;;;5069699;28;20201;-85
2022/12/14 03:00:29;;;;;;;7.90;6.40;;;;;;;;;;5070498;28;20209;-85
2022/12/14 03:02:56;;;;;;;10.20;7.33;;;;;;;;;;5070851;28;20209;-85
2022/12/14 03:05:23;;;;;;;9.80;7.70;;;;;;;;;;5052922;28;20622;-85
2022/12/14 03:07:52;;;;;;;7.93;4.90;;;;;;;;;;5068799;28;20211;-85
2022/12/14 03:10:30;;;;;;;4.60;4.20;;;;;;;;;;5069518;28;20232;-85
2022/12/14 03:13:02;;;;;;;10.27;7.13;;;;;;;;;;5070573;28;20240;-85
2022/12/14 03:15:32;;;;;;;8.13;5.27;;;;;;;;;;5070454;28;20644;-85
2022/12/14 03:18:04;;;;;;;14.60;8.27;;;;;;;;;;5069020;28;20237;-84
2022/12/14 03:20:33;;;;;;;12.27;7.47;;;;;;;;;;5069481;28;20201;-84
2022/12/14 03:23:04;;;;;;;4.87;4.27;;;;;;;;;;5070521;28;20735;-84
2022/12/14 03:25:34;;;;;;;10.13;4.43;;;;;;;;;;5077752;28;20277;-84
2022/12/14 03:28:05;;;;;;;6.23;4.43;;;;;;;;;;5083938;28;20208;-85
2022/12/14 03:30:37;;;;;;;5.47;4.53;;;;;;;;;;5073771;28;20209;-84
2022/12/14 03:33:09;;;;;;;20.53;10.23;;;;;;;;;;5072950;28;20280;-84
2022/12/14 03:35:39;;;;;;;16.47;9.50;;;;;;;;;;5073589;28;20290;-83
2022/12/14 03:38:12;;;;;;;9.50;7.10;;;;;;;;;;5073114;28;20205;-84
2022/12/14 03:40:56;;;;;;;12.43;8.23;;;;;;;;;;5055230;28;20210;-84
2022/12/14 03:43:28;;;;;;;16.57;9.00;;;;;;;;;;5066620;28;20209;-84
2022/12/14 03:46:01;;;;;;;11.10;5.83;;;;;;;;;;5081968;28;20197;-85
2022/12/14 03:48:31;;;;;;;19.97;12.27;;;;;;;;;;5056936;28;20231;-85
2022/12/14 03:51:06;;;;;;;8.20;6.77;;;;;;;;;;5060683;28;20229;-85
2022/12/14 03:53:39;;;;;;;12.63;5.47;;;;;;;;;;5065528;28;20208;-84
2022/12/14 03:56:10;;;;;;;10.37;7.50;;;;;;;;;;5067983;28;20680;-85
2022/12/14 03:58:39;;;;;;;7.80;5.83;;;;;;;;;;5063504;28;20213;-85
2022/12/14 04:01:13;;;;;;;18.03;8.90;;;;;;;;;;5065781;28;20209;-85
2022/12/14 04:03:50;;;;;;;8.43;5.53;;;;;;;;;;5063386;28;20226;-85
2022/12/14 04:06:27;;;;;;;8.90;7.20;;;;;;;;;;5060075;28;20201;-86
2022/12/14 04:09:03;;;;;;;10.60;7.70;;;;;;;;;;5066051;28;20209;-85
2022/12/14 04:20:08;;;;;;;8.83;6.00;;;;;;;;;;5072437;28;20216;-85
2022/12/14 04:22:38;;;;;;;8.73;6.87;;;;;;;;;;5072211;28;20205;-86
2022/12/14 04:27:57;;;;;;;4.83;4.40;;;;;;;;;;5072523;28;20751;-86
2022/12/14 04:30:23;;;;;;;9.97;6.60;;;;;;;;;;5073105;28;20209;-86
2022/12/14 04:32:56;;;;;;;63.13;40.90;;;;;;;;;;5053204;28;20210;-86
2022/12/14 04:35:30;;;;;;;51.27;31.70;;;;;;;;;;5072511;28;20201;-86
2022/12/14 04:38:01;;;;;;;39.93;23.50;;;;;;;;;;5087629;28;20200;-85
2022/12/14 04:40:33;;;;;;;29.53;18.43;;;;;;;;;;5072337;28;20651;-85
2022/12/14 04:43:05;;;;;;;20.20;13.43;;;;;;;;;;5072965;28;20200;-86
2022/12/14 04:45:34;;;;;;;19.00;12.03;;;;;;;;;;5072626;28;20236;-86
2022/12/14 04:48:10;;;;;;;29.47;21.57;;;;;;;;;;5086127;28;20213;-86
2022/12/14 04:50:43;;;;;;;31.27;21.60;;;;;;;;;;5073613;28;20235;-86
2022/12/14 04:53:13;;;;;;;31.33;15.90;;;;;;;;;;5072790;28;20629;-85
2022/12/14 04:55:44;;;;;;;42.00;26.67;;;;;;;;;;5071192;28;20785;-85
2022/12/14 04:58:16;;;;;;;31.40;21.27;;;;;;;;;;5069372;28;20210;-85
2022/12/14 05:00:58;;;;;;;85.43;45.23;;;;;;;;;;5059139;28;20280;-87
2022/12/14 05:03:30;;;;;;;88.17;46.20;;;;;;;;;;5074700;28;20209;-87
2022/12/14 05:06:03;;;;;;;19.47;13.13;;;;;;;;;;5083342;28;20209;-87
2022/12/14 05:08:43;;;;;;;13.13;8.77;;;;;;;;;;5072377;28;20267;-87
2022/12/14 05:11:15;;;;;;;12.57;9.13;;;;;;;;;;5065170;28;20204;-92
2022/12/14 05:13:46;;;;;;;12.27;9.13;;;;;;;;;;5072775;28;20217;-90
2022/12/14 05:16:16;;;;;;;15.83;9.90;;;;;;;;;;5073111;28;20278;-89
2022/12/14 05:18:47;;;;;;;15.00;8.43;;;;;;;;;;5072185;28;20715;-89
2022/12/14 05:21:45;;;;;;;9.50;6.57;;;;;;;;;;5061441;28;20205;-90
2022/12/14 05:24:03;;;;;;;8.33;6.47;;;;;;;;;;5069274;28;20756;-89
2022/12/14 05:26:32;;;;;;;24.90;16.63;;;;;;;;;;5071316;28;20216;-90
2022/12/14 05:29:00;;;;;;;26.23;17.90;;;;;;;;;;5072588;28;20205;-89
2022/12/14 05:31:28;;;;;;;16.13;11.50;;;;;;;;;;5086344;28;20261;-90
2022/12/14 05:33:58;;;;;;;10.47;6.57;;;;;;;;;;5073360;28;20216;-89
2022/12/14 05:36:25;;;;;;;8.33;6.17;;;;;;;;;;5071782;28;20208;-90
2022/12/14 05:38:52;;;;;;;8.47;5.23;;;;;;;;;;5085803;28;20220;-90
2022/12/14 05:41:19;;;;;;;11.10;6.37;;;;;;;;;;5071597;28;20208;-89
2022/12/14 05:43:46;;;;;;;8.03;6.03;;;;;;;;;;5071507;28;20212;-89
2022/12/14 05:46:13;;;;;;;80.00;39.67;;;;;;;;;;5071124;28;20197;-90
2022/12/14 05:48:40;;;;;;;55.57;31.67;;;;;;;;;;5070789;28;20205;-89
2022/12/14 05:51:10;;;;;;;21.63;13.40;;;;;;;;;;5071219;28;20216;-90
2022/12/14 05:53:38;;;;;;;12.90;8.03;;;;;;;;;;5072825;28;20208;-90
2022/12/14 05:56:07;;;;;;;12.23;7.40;;;;;;;;;;5071689;28;20209;-90
2022/12/14 05:58:34;;;;;;;9.10;7.17;;;;;;;;;;5064891;28;20613;-90
2022/12/14 06:01:01;;;;;;;11.23;8.60;;;;;;;;;;5079199;28;20205;-90
2022/12/14 06:03:28;;;;;;;8.13;7.33;;;;;;;;;;5071350;28;20694;-91
2022/12/14 06:06:01;;;;;;;7.07;5.37;;;;;;;;;;5072691;28;20224;-90
2022/12/14 06:08:33;;;;;;;9.07;6.73;;;;;;;;;;5072637;28;20688;-90
2022/12/14 06:11:07;;;;;;;11.47;6.63;;;;;;;;;;5072219;28;20284;-91
2022/12/14 06:13:35;;;;;;;10.83;7.00;;;;;;;;;;5072308;28;20205;-91
2022/12/14 06:16:11;;;;;;;13.43;9.03;;;;;;;;;;5072292;28;20322;-90
2022/12/14 06:18:42;;;;;;;14.47;9.30;;;;;;;;;;5072430;28;20259;-90
2022/12/14 06:21:09;;;;;;;10.00;7.63;;;;;;;;;;5081924;28;20250;-91
2022/12/14 06:23:37;;;;;;;25.07;17.97;;;;;;;;;;5074622;28;20303;-90
2022/12/14 06:26:04;;;;;;;21.30;18.10;;;;;;;;;;5071023;28;20224;-90
2022/12/14 06:28:31;;;;;;;16.90;15.13;;;;;;;;;;5070689;28;20212;-87
2022/12/14 06:30:58;;;;;;;27.30;23.20;;;;;;;;;;5070851;28;20208;-88
2022/12/14 06:33:25;;;;;;;15.23;13.23;;;;;;;;;;5071031;28;20205;-88
2022/12/14 06:35:53;;;;;;;21.53;17.10;;;;;;;;;;5067057;28;20205;-87
2022/12/14 06:38:20;;;;;;;30.13;22.03;;;;;;;;;;5062843;28;20209;-86
2022/12/14 06:40:49;;;;;;;19.07;14.00;;;;;;;;;;5061843;28;20278;-87
2022/12/14 06:43:16;;;;;;;28.07;19.63;;;;;;;;;;5061764;28;20201;-87
2022/12/14 06:45:45;;;;;;;16.17;14.13;;;;;;;;;;5065007;28;20231;-87
2022/12/14 06:48:12;;;;;;;16.33;12.03;;;;;;;;;;5060351;28;20208;-87
2022/12/14 06:50:39;;;;;;;18.20;8.77;;;;;;;;;;5062880;28;20705;-87
2022/12/14 06:53:06;;;;;;;8.70;7.20;;;;;;;;;;5062428;28;20629;-86
2022/12/14 06:55:33;;;;;;;10.90;9.03;;;;;;;;;;5065404;28;20213;-86
2022/12/14 06:58:02;;;;;;;14.67;10.50;;;;;;;;;;5065305;28;20193;-86
2022/12/14 07:00:29;;;;;;;12.20;8.60;;;;;;;;;;5070768;28;20197;-88
2022/12/14 07:02:55;;;;;;;9.80;8.70;;;;;;;;;;5069455;28;20205;-87
2022/12/14 07:05:22;;;;;;;10.87;7.60;;;;;;;;;;5066091;28;20217;-88
2022/12/14 07:07:49;;;;;;;10.60;8.33;;;;;;;;;;5068689;28;20197;-87
2022/12/14 07:10:17;;;;;;;11.57;7.30;;;;;;;;;;5071391;28;20674;-88
2022/12/14 07:12:44;;;;;;;10.80;5.90;;;;;;;;;;5068168;28;20263;-89
2022/12/14 07:15:15;;;;;;;8.10;5.77;;;;;;;;;;5071256;28;20258;-88
2022/12/14 07:17:42;;;;;;;7.83;6.03;;;;;;;;;;5068265;28;20232;-88
2022/12/14 07:20:10;;;;;;;6.70;5.90;;;;;;;;;;5066045;28;20212;-89
2022/12/14 07:22:37;;;;;;;7.97;5.97;;;;;;;;;;5066890;28;20212;-88
2022/12/14 07:25:05;;;;;;;7.20;5.47;;;;;;;;;;5070975;28;20252;-88
2022/12/14 07:27:32;;;;;;;6.93;5.40;;;;;;;;;;5068709;28;20259;-88
2022/12/14 07:29:59;;;;;;;6.33;4.73;;;;;;;;;;5065949;28;20197;-87
2022/12/14 07:32:27;;;;;;;5.53;4.83;;;;;;;;;;5063359;28;20258;-88
2022/12/14 07:34:54;;;;;;;7.17;5.37;;;;;;;;;;5061955;28;20606;-89
2022/12/14 07:37:21;;;;;;;5.17;4.53;;;;;;;;;;5063239;28;20685;-88
2022/12/14 07:39:48;;;;;;;6.60;5.53;;;;;;;;;;5071897;28;20220;-89
2022/12/14 07:42:15;;;;;;;7.50;4.90;;;;;;;;;;5064723;28;20205;-88
2022/12/14 07:44:43;;;;;;;7.37;5.07;;;;;;;;;;5067884;28;20232;-89
2022/12/14 07:47:09;;;;;;;6.43;4.30;;;;;;;;;;5059207;28;20212;-90
2022/12/14 07:49:38;;;;;;;4.97;4.47;;;;;;;;;;5062411;28;20209;-87
2022/12/14 07:52:05;;;;;;;5.07;4.57;;;;;;;;;;5061404;28;20198;-90
2022/12/14 07:54:33;;;;;;;8.20;4.87;;;;;;;;;;5068278;28;20223;-89
2022/12/14 07:57:00;;;;;;;6.10;5.37;;;;;;;;;;5062571;28;20193;-90
2022/12/14 07:59:27;;;;;;;5.40;4.30;;;;;;;;;;5058596;28;20201;-93
2022/12/14 08:01:55;;;;;;;6.23;4.60;;;;;;;;;;5070949;28;20201;-92
2022/12/14 08:04:22;;;;;;;6.23;4.20;;;;;;;;;;5071493;28;20656;-91
2022/12/14 08:06:51;;;;;;;3.87;3.37;;;;;;;;;;5064946;28;20228;-89
2022/12/14 08:09:18;;;;;;;6.07;4.43;;;;;;;;;;5059997;28;20715;-91
2022/12/14 08:11:46;;;;;;;8.60;5.60;;;;;;;;;;5068510;28;20205;-91
2022/12/14 08:14:15;;;;;;;7.27;5.97;;;;;;;;;;5060874;28;20622;-90
2022/12/14 08:16:43;;;;;;;5.30;3.73;;;;;;;;;;5064219;28;20202;-90
2022/12/14 08:19:11;;;;;;;5.13;4.47;;;;;;;;;;5070983;28;20205;-91
2022/12/14 08:21:38;;;;;;;4.77;2.80;;;;;;;;;;5063164;28;20201;-89
2022/12/14 08:24:07;;;;;;;4.23;3.10;;;;;;;;;;5062673;28;20201;-92
2022/12/14 08:26:35;;;;;;;3.00;2.70;;;;;;;;;;5067516;28;20825;-94
2022/12/14 08:29:02;;;;;;;12.30;5.33;;;;;;;;;;5067039;28;20210;-93
2022/12/14 08:31:29;;;;;;;8.10;5.23;;;;;;;;;;5067100;28;20206;-94
2022/12/14 08:33:56;;;;;;;5.63;5.00;;;;;;;;;;5065488;28;20664;-95
2022/12/14 08:36:25;;;;;;;6.20;4.60;;;;;;;;;;5060138;28;20212;-91
2022/12/14 08:38:53;;;;;;;5.37;4.73;;;;;;;;;;5067557;28;20292;-91
2022/12/14 08:41:22;;;;;;;9.03;6.57;;;;;;;;;;5063794;28;20238;-87
2022/12/14 08:43:51;;;;;;;12.93;8.80;;;;;;;;;;5068378;28;20211;-88
2022/12/14 08:46:18;;;;;;;5.77;4.73;;;;;;;;;;5066582;28;20255;-87
2022/12/14 08:48:45;;;;;;;9.73;5.43;;;;;;;;;;5061600;28;20198;-85
2022/12/14 08:51:12;;;;;;;6.37;4.07;;;;;;;;;;5059819;28;20197;-87
2022/12/14 08:53:40;;;;;;;4.60;4.20;;;;;;;;;;5061082;28;20205;-89
2022/12/14 08:56:10;;;;;;;9.03;5.87;;;;;;;;;;5063795;28;20235;-87
2022/12/14 08:58:40;;;;;;;12.40;8.43;;;;;;;;;;5060772;28;20201;-86
2022/12/14 09:01:10;;;;;;;5.13;4.40;;;;;;;;;;5068604;28;20201;-87
2022/12/14 09:03:37;;;;;;;5.67;4.90;;;;;;;;;;5069879;28;20749;-89
2022/12/14 09:06:05;;;;;;;6.27;5.07;;;;;;;;;;5064158;28;20308;-88
2022/12/14 09:08:32;;;;;;;5.87;4.87;;;;;;;;;;5065931;28;20722;-86
2022/12/14 09:10:59;;;;;;;5.47;4.57;;;;;;;;;;5072293;28;20205;-86
2022/12/14 09:13:27;;;;;;;5.27;4.23;;;;;;;;;;5084540;28;20288;-85
2022/12/14 09:15:59;;;;;;;7.53;5.83;;;;;;;;;;5074214;28;20675;-85
2022/12/14 09:18:27;;;;;;;10.73;4.60;;;;;;;;;;5072264;28;20229;-86
2022/12/14 09:20:54;;;;;;;11.40;7.93;;;;;;;;;;5071890;28;20212;-86
2022/12/14 09:23:25;;;;;;;12.10;9.17;;;;;;;;;;5057638;28;20201;-86
2022/12/14 09:26:00;;;;;;;5.07;4.10;;;;;;;;;;5065021;28;20653;-86
2022/12/14 09:28:27;;;;;;;4.03;3.60;;;;;;;;;;5072184;28;20217;-87
2022/12/14 09:30:56;;;;;;;3.17;2.93;;;;;;;;;;5071585;28;20287;-86
2022/12/14 09:33:24;;;;;;;4.83;3.87;;;;;;;;;;5071817;28;20228;-86
2022/12/14 09:35:51;;;;;;;3.87;3.53;;;;;;;;;;5086377;28;20687;-86
2022/12/14 09:38:19;;;;;;;6.43;3.37;;;;;;;;;;5071792;28;20200;-86
2022/12/14 09:40:56;;;;;;;3.67;3.37;;;;;;;;;;5071139;28;20209;-85
2022/12/14 09:43:36;;;;;;;3.80;3.23;;;;;;;;;;5064930;28;20205;-83
2022/12/14 09:46:11;;;;;;;3.80;3.07;;;;;;;;;;5066517;28;20706;-86
2022/12/14 09:48:42;;;;;;;4.00;3.53;;;;;;;;;;5067642;28;20205;-88
2022/12/14 09:51:13;;;;;;;5.00;3.73;;;;;;;;;;5037586;28;20292;-88
2022/12/14 09:53:41;;;;;;;5.40;4.03;;;;;;;;;;5071744;28;20201;-88
2022/12/14 09:56:12;;;;;;;3.87;3.17;;;;;;;;;;5071023;28;20232;-87
2022/12/14 09:58:41;;;;;;;7.27;6.13;;;;;;;;;;5068442;28;20208;-88
2022/12/14 10:01:37;;;;;;;7.37;5.17;;;;;;;;;;5052501;28;20212;-89
2022/12/14 10:04:12;;;;;;;4.93;4.37;;;;;;;;;;5071930;28;20212;-87
2022/12/14 10:06:46;;;;;;;10.70;6.83;;;;;;;;;;5069773;28;20232;-87
2022/12/14 10:09:20;;;;;;;8.27;6.87;;;;;;;;;;5082069;28;20230;-86
2022/12/14 10:11:52;;;;;;;18.33;11.90;;;;;;;;;;5063610;28;20205;-87
2022/12/14 10:14:23;;;;;;;6.70;5.70;;;;;;;;;;5063391;28;20262;-87
2022/12/14 10:16:57;;;;;;;8.33;6.00;;;;;;;;;;5070439;28;20715;-87
2022/12/14 10:19:35;;;;;;;7.17;6.17;;;;;;;;;;5059889;28;20232;-85
2022/12/14 10:22:05;;;;;;;17.10;10.83;;;;;;;;;;5057931;28;20213;-87
2022/12/14 10:24:35;;;;;;;4.57;3.57;;;;;;;;;;5065131;28;20738;-86
2022/12/14 10:27:02;;;;;;;3.93;3.50;;;;;;;;;;5068083;28;20221;-87
2022/12/14 10:29:33;;;;;;;9.17;7.20;;;;;;;;;;5070128;28;20211;-87
2022/12/14 10:32:07;;;;;;;7.87;5.00;;;;;;;;;;5071052;28;20290;-88
2022/12/14 10:34:37;;;;;;;5.13;4.60;;;;;;;;;;5064846;28;20289;-88
2022/12/14 10:37:12;;;;;;;7.00;5.33;;;;;;;;;;5069041;28;20201;-88
2022/12/14 10:39:47;;;;;;;3.10;2.80;;;;;;;;;;5063710;28;20571;-87
2022/12/14 10:42:18;;;;;;;4.07;3.53;;;;;;;;;;5062510;28;20205;-88
2022/12/14 10:44:52;;;;;;;3.07;2.50;;;;;;;;;;5071516;28;20224;-88
2022/12/14 10:47:22;;;;;;;3.53;2.50;;;;;;;;;;5055292;28;20225;-88
2022/12/14 10:49:55;;;;;;;6.90;4.73;;;;;;;;;;5064987;28;20213;-88
2022/12/14 10:52:23;;;;;;;33.90;20.43;;;;;;;;;;5066991;28;20208;-87
2022/12/14 10:54:52;;;;;;;14.70;10.20;;;;;;;;;;5070959;28;20679;-88
2022/12/14 10:57:20;;;;;;;15.20;12.07;;;;;;;;;;5071252;28;20267;-87
2022/12/14 10:59:47;;;;;;;5.00;4.50;;;;;;;;;;5070915;28;20221;-88
2022/12/14 11:02:16;;;;;;;3.67;2.60;;;;;;;;;;5068919;28;20205;-88
2022/12/14 11:04:51;;;;;;;3.00;2.70;;;;;;;;;;5063890;28;20569;-88
2022/12/14 11:07:19;;;;;;;7.77;7.03;;;;;;;;;;5070941;28;20227;-88
2022/12/14 11:09:46;;;;;;;5.80;5.20;;;;;;;;;;5070539;28;20213;-88
2022/12/14 11:12:19;;;;;;;10.77;9.77;;;;;;;;;;5071334;28;20208;-88
2022/12/14 11:14:55;;;;;;;8.50;6.83;;;;;;;;;;5077404;28;20201;-88
2022/12/14 11:17:34;;;;;;;15.50;9.77;;;;;;;;;;5070659;28;20316;-89
2022/12/14 11:20:18;;;;;;;6.97;5.73;;;;;;;;;;5065995;28;20596;-88
2022/12/14 11:22:46;;;;;;;14.53;8.27;;;;;;;;;;5069463;28;20722;-88
2022/12/14 11:25:29;;;;;;;4.37;3.53;;;;;;;;;;5063122;28;20209;-88
2022/12/14 11:27:56;;;;;;;5.37;4.63;;;;;;;;;;5062822;28;20683;-88
2022/12/14 11:30:23;;;;;;;5.33;4.80;;;;;;;;;;5058292;28;20194;-88
2022/12/14 11:32:51;;;;;;;3.20;2.80;;;;;;;;;;5066214;28;20201;-88
2022/12/14 11:35:20;;;;;;;3.03;2.50;;;;;;;;;;5062161;28;20206;-89
2022/12/14 11:37:48;;;;;;;2.93;2.73;;;;;;;;;;5068188;28;20630;-88
2022/12/14 11:40:21;;;;;;;2.63;2.43;;;;;;;;;;5070736;28;20206;-91
2022/12/14 11:42:49;;;;;;;3.50;3.07;;;;;;;;;;5071288;28;20696;-90
2022/12/14 11:45:29;;;;;;;3.47;3.00;;;;;;;;;;5071535;28;20207;-89
2022/12/14 11:48:19;;;;;;;10.80;7.93;;;;;;;;;;5071268;28;20730;-90
2022/12/14 11:50:48;;;;;;;5.00;3.80;;;;;;;;;;5074968;28;20208;-90
2022/12/14 11:53:18;;;;;;;3.50;2.77;;;;;;;;;;5074809;28;20606;-90
2022/12/14 11:55:49;;;;;;;2.40;2.20;;;;;;;;;;5088724;28;20270;-90
2022/12/14 11:58:19;;;;;;;3.73;3.17;;;;;;;;;;5074070;28;20288;-90
2022/12/14 12:00:48;;;;;;;22.53;15.60;;;;;;;;;;5074791;28;20208;-90
2022/12/14 12:03:21;;;;;;;11.27;8.47;;;;;;;;;;5074700;28;20594;-90
2022/12/14 12:05:51;;;;;;;10.50;8.07;;;;;;;;;;5074317;28;20647;-90
2022/12/14 12:08:20;;;;;;;10.40;8.90;;;;;;;;;;5074678;28;20201;-89
2022/12/14 12:10:49;;;;;;;4.03;3.63;;;;;;;;;;5073301;28;20216;-88
2022/12/14 12:13:24;;;;;;;2.90;2.67;;;;;;;;;;5068977;28;20221;-90
2022/12/14 12:15:53;;;;;;;3.90;3.60;;;;;;;;;;5074272;28;20209;-90
2022/12/14 12:18:24;;;;;;;9.00;7.53;;;;;;;;;;5074451;28;20221;-90
2022/12/14 12:20:54;;;;;;;6.53;5.43;;;;;;;;;;5074027;28;20594;-88
2022/12/14 12:23:26;;;;;;;20.60;13.90;;;;;;;;;;5074387;28;20194;-89
2022/12/14 12:25:53;;;;;;;12.50;8.37;;;;;;;;;;5073729;28;20216;-88
2022/12/14 12:28:23;;;;;;;6.57;5.27;;;;;;;;;;5074256;28;20205;-89
2022/12/14 12:30:52;;;;;;;3.40;3.10;;;;;;;;;;5074183;28;20208;-89
2022/12/14 12:33:28;;;;;;;12.07;8.27;;;;;;;;;;5073870;28;20212;-90
2022/12/14 12:35:59;;;;;;;7.53;6.23;;;;;;;;;;5073377;28;20208;-89
2022/12/14 12:38:40;;;;;;;3.93;3.50;;;;;;;;;;5074700;28;20643;-90
2022/12/14 12:41:18;;;;;;;6.10;5.50;;;;;;;;;;5073828;28;20209;-88
2022/12/14 12:43:52;;;;;;;23.53;16.00;;;;;;;;;;5074151;28;20296;-89
2022/12/14 12:46:20;;;;;;;14.17;11.60;;;;;;;;;;5074173;28;20320;-88
2022/12/14 12:48:50;;;;;;;7.07;6.20;;;;;;;;;;5073768;28;20212;-89
2022/12/14 12:51:22;;;;;;;12.80;9.37;;;;;;;;;;5087749;28;20701;-89
2022/12/14 12:53:52;;;;;;;13.30;9.00;;;;;;;;;;5073610;28;20208;-89
2022/12/14 12:56:22;;;;;;;7.07;6.37;;;;;;;;;;5073382;28;20205;-89
2022/12/14 12:58:50;;;;;;;4.50;4.10;;;;;;;;;;5074126;28;20208;-90
2022/12/14 13:01:22;;;;;;;3.77;3.47;;;;;;;;;;5073532;28;20204;-89
2022/12/14 13:03:51;;;;;;;6.57;4.20;;;;;;;;;;5073959;28;20614;-88
2022/12/14 13:06:22;;;;;;;4.17;3.77;;;;;;;;;;5073485;28;20217;-89
2022/12/14 13:08:53;;;;;;;6.27;5.67;;;;;;;;;;5073462;28;20201;-89
2022/12/14 13:11:22;;;;;;;3.07;2.77;;;;;;;;;;5086704;28;20493;-89
2022/12/14 13:13:51;;;;;;;13.83;9.67;;;;;;;;;;5073904;28;20635;-88
2022/12/14 13:16:21;;;;;;;25.37;18.93;;;;;;;;;;5084815;28;20269;-89
2022/12/14 13:18:51;;;;;;;5.43;4.93;;;;;;;;;;5074290;28;20244;-88
2022/12/14 13:21:30;;;;;;;32.17;20.77;;;;;;;;;;5073274;28;20591;-89
2022/12/14 13:23:57;;;;;;;14.80;10.23;;;;;;;;;;5087139;28;20197;-88
2022/12/14 13:26:36;;;;;;;30.23;17.90;;;;;;;;;;5072887;28;20220;-89
2022/12/14 13:29:07;;;;;;;29.20;17.43;;;;;;;;;;5072525;28;21033;-88
2022/12/14 13:31:37;;;;;;;20.97;12.20;;;;;;;;;;5072536;28;20255;-88
2022/12/14 13:34:18;;;;;;;24.33;13.90;;;;;;;;;;5077105;28;20212;-88
2022/12/14 13:37:21;;;;;;;21.60;13.43;;;;;;;;;;5080266;28;20235;-89
2022/12/14 13:40:41;;;;;;;6.40;3.77;;;;;;;;;;5062086;28;20204;-89
2022/12/14 13:43:23;;;;;;;17.43;11.70;;;;;;;;;;5072738;28;20212;-89
2022/12/14 13:45:50;;;;;;;30.97;21.80;;;;;;;;;;5072800;28;20216;-88
2022/12/14 13:48:23;;;;;;;9.70;5.67;;;;;;;;;;5072439;28;20224;-89
2022/12/14 13:50:56;;;;;;;27.80;19.13;;;;;;;;;;5084960;28;20262;-88
2022/12/14 13:53:28;;;;;;;9.90;7.70;;;;;;;;;;5073030;28;20201;-89
2022/12/14 13:55:56;;;;;;;12.00;7.77;;;;;;;;;;5072066;28;20295;-89
2022/12/14 13:58:32;;;;;;;14.13;10.93;;;;;;;;;;5072872;28;20212;-90
2022/12/14 14:01:01;;;;;;;20.13;13.50;;;;;;;;;;5072598;28;20205;-89
2022/12/14 14:03:47;;;;;;;15.93;9.90;;;;;;;;;;5072468;28;20220;-89
2022/12/14 14:06:20;;;;;;;19.80;14.97;;;;;;;;;;5072239;28;20212;-89
2022/12/14 14:08:49;;;;;;;14.10;10.53;;;;;;;;;;5071774;28;20239;-89
2022/12/14 14:11:44;;;;;;;9.97;8.73;;;;;;;;;;5072324;28;20266;-89
2022/12/14 14:14:28;;;;;;;17.17;11.90;;;;;;;;;;5061049;28;20300;-90
2022/12/14 14:16:57;;;;;;;19.53;13.53;;;;;;;;;;5071743;28;20228;-89
2022/12/14 14:19:25;;;;;;;27.17;17.23;;;;;;;;;;5072372;28;20292;-90
2022/12/14 14:22:12;;;;;;;27.90;18.93;;;;;;;;;;5072029;28;20201;-90
2022/12/14 14:24:58;;;;;;;36.77;19.43;;;;;;;;;;5071947;28;20247;-89
2022/12/14 14:27:27;;;;;;;37.30;21.67;;;;;;;;;;5072388;28;20232;-90
2022/12/14 14:29:54;;;;;;;23.83;17.27;;;;;;;;;;5072323;28;20209;-90
2022/12/14 14:32:34;;;;;;;19.73;13.30;;;;;;;;;;5087105;28;20205;-91
2022/12/14 14:35:01;;;;;;;8.97;7.67;;;;;;;;;;5072329;28;20216;-90
2022/12/14 14:37:31;;;;;;;6.23;5.63;;;;;;;;;;5072160;28;20636;-90
2022/12/14 14:40:04;;;;;;;13.90;9.90;;;;;;;;;;5072261;28;20757;-90
2022/12/14 14:42:35;;;;;;;4.83;3.93;;;;;;;;;;5072720;28;20204;-90
2022/12/14 14:45:07;;;;;;;4.07;3.23;;;;;;;;;;5059090;28;20205;-90
2022/12/14 14:47:36;;;;;;;7.67;6.60;;;;;;;;;;5072347;28;20323;-88
2022/12/14 14:50:06;;;;;;;8.53;6.43;;;;;;;;;;5057942;28;20216;-90
2022/12/14 14:52:58;;;;;;;24.00;13.27;;;;;;;;;;5071430;28;20220;-90
2022/12/14 14:55:50;;;;;;;18.17;11.10;;;;;;;;;;5060360;28;20205;-91
2022/12/14 14:58:24;;;;;;;17.23;9.87;;;;;;;;;;5067000;28;20258;-91
2022/12/14 15:00:54;;;;;;;18.13;10.73;;;;;;;;;;5071403;28;20227;-90
2022/12/14 15:03:24;;;;;;;81.80;37.17;;;;;;;;;;5071981;28;20212;-91
2022/12/14 15:05:51;;;;;;;61.13;30.03;;;;;;;;;;5061462;28;20198;-90
2022/12/14 15:08:20;;;;;;;80.13;38.73;;;;;;;;;;5066749;28;20253;-90